BOX2WZ BIKF-EGPH
Flight info
| Callsign | BOX2WZ |
|---|---|
| Flight time | 1h 51m |
| Altitude | 35000 |
| Route | PIXUM2C PIXUM DCT PETUX DCT PODAR DCT ORTAV DCT ODPEX DCT LAGAV/N0426F240 N560 FOYLE DCT STIRA |
| Aircraft | B77L/H-SDE1E2E3FGHIJ2J3J4J5M1RWXY/LB1D1 |
Departure
| Time | 2026-04-20 15:23 |
|---|---|
| Airport | Keflavik International Airport (BIKF) |
Arrival
| Time | 2026-04-20 17:15 |
|---|---|
| Airport | Edinburgh Airport (EGPH) |
| Time | Latitude | Longitude | Altitude | Speed | Heading |
|---|---|---|---|---|---|
| 2026-04-20 15:03 | 63.99408 | -22.62896 | 131 ft | 0 kts | 270° |
| 2026-04-20 15:14 | 63.99408 | -22.62894 | 147 ft | 2 kts | 270° |
| 2026-04-20 15:14 | 63.99407 | -22.62837 | 146 ft | 4 kts | 270° |
| 2026-04-20 15:14 | 63.99407 | -22.62776 | 147 ft | 4 kts | 271° |
| 2026-04-20 15:15 | 63.99409 | -22.62720 | 147 ft | 4 kts | 239° |
| 2026-04-20 15:15 | 63.99427 | -22.62679 | 147 ft | 4 kts | 208° |
| 2026-04-20 15:15 | 63.99437 | -22.62667 | 147 ft | 2 kts | 204° |
| 2026-04-20 15:17 | 63.99435 | -22.62669 | 147 ft | 2 kts | 204° |
| 2026-04-20 15:17 | 63.99397 | -22.62709 | 147 ft | 10 kts | 204° |
| 2026-04-20 15:17 | 63.99316 | -22.62744 | 147 ft | 12 kts | 181° |
| 2026-04-20 15:18 | 63.99252 | -22.62704 | 147 ft | 8 kts | 147° |
| 2026-04-20 15:18 | 63.99201 | -22.62677 | 147 ft | 8 kts | 172° |
| 2026-04-20 15:18 | 63.99174 | -22.62578 | 147 ft | 8 kts | 97° |
| 2026-04-20 15:18 | 63.99172 | -22.62444 | 147 ft | 10 kts | 91° |
| 2026-04-20 15:19 | 63.99172 | -22.62226 | 147 ft | 16 kts | 90° |
| 2026-04-20 15:19 | 63.99173 | -22.61976 | 147 ft | 16 kts | 89° |
| 2026-04-20 15:19 | 63.99173 | -22.61727 | 151 ft | 16 kts | 90° |
| 2026-04-20 15:19 | 63.99173 | -22.61479 | 157 ft | 16 kts | 90° |
| 2026-04-20 15:20 | 63.99173 | -22.61230 | 162 ft | 16 kts | 89° |
| 2026-04-20 15:20 | 63.99174 | -22.60980 | 167 ft | 16 kts | 90° |
| 2026-04-20 15:20 | 63.99174 | -22.60766 | 173 ft | 12 kts | 90° |
| 2026-04-20 15:20 | 63.99173 | -22.60604 | 180 ft | 6 kts | 90° |
| 2026-04-20 15:21 | 63.99148 | -22.60543 | 180 ft | 6 kts | 167° |
| 2026-04-20 15:21 | 63.99134 | -22.60542 | 180 ft | 0 kts | 178° |
| 2026-04-20 15:22 | 63.99052 | -22.60537 | 182 ft | 30 kts | 179° |
| 2026-04-20 15:22 | 63.98601 | -22.60538 | 180 ft | 101 kts | 180° |
| 2026-04-20 15:23 | 63.97693 | -22.60526 | 199 ft | 155 kts | 180° |
| 2026-04-20 15:23 | 63.96592 | -22.60554 | 685 ft | 160 kts | 177° |
| 2026-04-20 15:23 | 63.95458 | -22.60563 | 1351 ft | 165 kts | 172° |
| 2026-04-20 15:23 | 63.94426 | -22.59245 | 1633 ft | 188 kts | 128° |
| 2026-04-20 15:24 | 63.93694 | -22.56552 | 1864 ft | 214 kts | 128° |
| 2026-04-20 15:24 | 63.92672 | -22.53848 | 2383 ft | 232 kts | 134° |
| 2026-04-20 15:24 | 63.91540 | -22.51122 | 3199 ft | 241 kts | 134° |
| 2026-04-20 15:24 | 63.90368 | -22.48315 | 4074 ft | 248 kts | 134° |
| 2026-04-20 15:25 | 63.89176 | -22.45444 | 5038 ft | 250 kts | 134° |
| 2026-04-20 15:25 | 63.87975 | -22.42533 | 5885 ft | 257 kts | 134° |
| 2026-04-20 15:25 | 63.86749 | -22.39546 | 6654 ft | 260 kts | 133° |
| 2026-04-20 15:25 | 63.85509 | -22.36514 | 7038 ft | 264 kts | 133° |
| 2026-04-20 15:26 | 63.84250 | -22.33431 | 6997 ft | 266 kts | 133° |
| 2026-04-20 15:26 | 63.82997 | -22.30357 | 7023 ft | 265 kts | 133° |
| 2026-04-20 15:26 | 63.81752 | -22.27300 | 7020 ft | 264 kts | 133° |
| 2026-04-20 15:26 | 63.80511 | -22.24256 | 7023 ft | 263 kts | 133° |
| 2026-04-20 15:27 | 63.79268 | -22.21210 | 7021 ft | 263 kts | 133° |
| 2026-04-20 15:27 | 63.78021 | -22.18156 | 7020 ft | 264 kts | 133° |
| 2026-04-20 15:27 | 63.76776 | -22.15108 | 7019 ft | 264 kts | 133° |
| 2026-04-20 15:27 | 63.75532 | -22.12068 | 7020 ft | 264 kts | 133° |
| 2026-04-20 15:28 | 63.74284 | -22.09026 | 7021 ft | 264 kts | 133° |
| 2026-04-20 15:28 | 63.73051 | -22.06026 | 7022 ft | 264 kts | 133° |
| 2026-04-20 15:28 | 63.71823 | -22.02860 | 7077 ft | 265 kts | 127° |
| 2026-04-20 15:28 | 63.70782 | -21.99496 | 7732 ft | 267 kts | 124° |
| 2026-04-20 15:29 | 63.69747 | -21.95995 | 8596 ft | 270 kts | 124° |
| 2026-04-20 15:29 | 63.68697 | -21.92461 | 9418 ft | 273 kts | 124° |
| 2026-04-20 15:29 | 63.67626 | -21.88893 | 10221 ft | 278 kts | 124° |
| 2026-04-20 15:29 | 63.66534 | -21.85288 | 10641 ft | 280 kts | 125° |
| 2026-04-20 15:30 | 63.65423 | -21.81640 | 10625 ft | 284 kts | 125° |
| 2026-04-20 15:30 | 63.64304 | -21.77987 | 10650 ft | 283 kts | 125° |
| 2026-04-20 15:30 | 63.63191 | -21.74373 | 10629 ft | 280 kts | 125° |
| 2026-04-20 15:30 | 63.62085 | -21.70788 | 10649 ft | 279 kts | 125° |
| 2026-04-20 15:31 | 63.60973 | -21.67188 | 10667 ft | 284 kts | 125° |
| 2026-04-20 15:31 | 63.59798 | -21.63391 | 10866 ft | 309 kts | 125° |
| 2026-04-20 15:31 | 63.58964 | -21.60703 | 10970 ft | 326 kts | 125° |
| 2026-04-20 15:31 | 63.57143 | -21.54839 | 11351 ft | 356 kts | 125° |
| 2026-04-20 15:32 | 63.56195 | -21.51787 | 11749 ft | 363 kts | 125° |
| 2026-04-20 15:32 | 63.54738 | -21.47108 | 12456 ft | 366 kts | 125° |
| 2026-04-20 15:32 | 63.53265 | -21.42382 | 12645 ft | 374 kts | 125° |
| 2026-04-20 15:32 | 63.51770 | -21.37600 | 12643 ft | 374 kts | 125° |
| 2026-04-20 15:33 | 63.50283 | -21.32856 | 12648 ft | 370 kts | 125° |
| 2026-04-20 15:33 | 63.48792 | -21.28124 | 13028 ft | 375 kts | 125° |
| 2026-04-20 15:33 | 63.47275 | -21.23326 | 13898 ft | 379 kts | 125° |
| 2026-04-20 15:33 | 63.45749 | -21.18508 | 14745 ft | 382 kts | 125° |
| 2026-04-20 15:34 | 63.44207 | -21.13650 | 15531 ft | 384 kts | 125° |
| 2026-04-20 15:34 | 63.42650 | -21.08750 | 16244 ft | 389 kts | 125° |
| 2026-04-20 15:34 | 63.41068 | -21.03781 | 16922 ft | 396 kts | 124° |
| 2026-04-20 15:34 | 63.39466 | -20.98752 | 17663 ft | 399 kts | 124° |
| 2026-04-20 15:35 | 63.37844 | -20.93677 | 18438 ft | 402 kts | 124° |
| 2026-04-20 15:35 | 63.36208 | -20.88572 | 19134 ft | 407 kts | 124° |
| 2026-04-20 15:35 | 63.34531 | -20.83452 | 19768 ft | 411 kts | 126° |
| 2026-04-20 15:35 | 63.32793 | -20.78358 | 20399 ft | 415 kts | 127° |
| 2026-04-20 15:36 | 63.31022 | -20.73255 | 21064 ft | 418 kts | 127° |
| 2026-04-20 15:36 | 63.29230 | -20.68116 | 21679 ft | 423 kts | 127° |
| 2026-04-20 15:36 | 63.27419 | -20.62920 | 22256 ft | 428 kts | 127° |
| 2026-04-20 15:36 | 63.25592 | -20.57676 | 22911 ft | 431 kts | 127° |
| 2026-04-20 15:37 | 63.23774 | -20.52456 | 23537 ft | 435 kts | 127° |
| 2026-04-20 15:37 | 63.21892 | -20.47055 | 24070 ft | 440 kts | 127° |
| 2026-04-20 15:37 | 63.20007 | -20.41653 | 24573 ft | 445 kts | 127° |
| 2026-04-20 15:37 | 63.18105 | -20.36215 | 25130 ft | 447 kts | 127° |
| 2026-04-20 15:38 | 63.16192 | -20.30757 | 25713 ft | 449 kts | 127° |
| 2026-04-20 15:38 | 63.14268 | -20.25279 | 26225 ft | 453 kts | 127° |
| 2026-04-20 15:38 | 63.12325 | -20.19762 | 26678 ft | 458 kts | 127° |
| 2026-04-20 15:38 | 63.10360 | -20.14195 | 27217 ft | 461 kts | 127° |
| 2026-04-20 15:39 | 63.08380 | -20.08601 | 27746 ft | 464 kts | 127° |
| 2026-04-20 15:39 | 63.06409 | -20.03044 | 28205 ft | 468 kts | 127° |
| 2026-04-20 15:39 | 63.04387 | -19.97359 | 28669 ft | 472 kts | 127° |
| 2026-04-20 15:39 | 63.02353 | -19.91654 | 29127 ft | 476 kts | 127° |
| 2026-04-20 15:40 | 63.00295 | -19.85900 | 29581 ft | 481 kts | 127° |
| 2026-04-20 15:40 | 62.98214 | -19.80094 | 29936 ft | 486 kts | 127° |
| 2026-04-20 15:40 | 62.96112 | -19.74243 | 30384 ft | 489 kts | 127° |
| 2026-04-20 15:40 | 62.94003 | -19.68392 | 30944 ft | 488 kts | 127° |
| 2026-04-20 15:41 | 62.91901 | -19.62572 | 31537 ft | 485 kts | 127° |
| 2026-04-20 15:41 | 62.89806 | -19.56788 | 32102 ft | 483 kts | 127° |
| 2026-04-20 15:41 | 62.87718 | -19.51037 | 32646 ft | 481 kts | 127° |
| 2026-04-20 15:41 | 62.85633 | -19.45308 | 33151 ft | 480 kts | 127° |
| 2026-04-20 15:42 | 62.83548 | -19.39592 | 33634 ft | 480 kts | 127° |
| 2026-04-20 15:42 | 62.81465 | -19.33896 | 34126 ft | 479 kts | 127° |
| 2026-04-20 15:42 | 62.79385 | -19.28221 | 34612 ft | 478 kts | 127° |
| 2026-04-20 15:42 | 62.77313 | -19.22578 | 35014 ft | 477 kts | 127° |
| 2026-04-20 15:43 | 62.75228 | -19.16921 | 35293 ft | 479 kts | 127° |
| 2026-04-20 15:43 | 62.73182 | -19.11167 | 35528 ft | 481 kts | 123° |
| 2026-04-20 15:43 | 62.71371 | -19.05015 | 35610 ft | 482 kts | 118° |
| 2026-04-20 15:44 | 62.67995 | -18.92437 | 35633 ft | 479 kts | 118° |
| 2026-04-20 15:44 | 62.64634 | -18.80009 | 35636 ft | 475 kts | 118° |
| 2026-04-20 15:45 | 62.61252 | -18.67673 | 35644 ft | 475 kts | 118° |
| 2026-04-20 15:45 | 62.57846 | -18.55367 | 35640 ft | 476 kts | 118° |
| 2026-04-20 15:46 | 62.54425 | -18.43082 | 35640 ft | 477 kts | 119° |
| 2026-04-20 15:46 | 62.50983 | -18.30787 | 35649 ft | 478 kts | 118° |
| 2026-04-20 15:47 | 62.47525 | -18.18498 | 35642 ft | 478 kts | 118° |
| 2026-04-20 15:47 | 62.44075 | -18.06306 | 35641 ft | 479 kts | 119° |
| 2026-04-20 15:48 | 62.40592 | -17.94064 | 35640 ft | 478 kts | 119° |
| 2026-04-20 15:48 | 62.37100 | -17.81853 | 35641 ft | 478 kts | 119° |
| 2026-04-20 15:49 | 62.33600 | -17.69683 | 35639 ft | 479 kts | 119° |
| 2026-04-20 15:49 | 62.30082 | -17.57512 | 35652 ft | 479 kts | 118° |
| 2026-04-20 15:50 | 62.26555 | -17.45378 | 35632 ft | 479 kts | 118° |
| 2026-04-20 15:50 | 62.23017 | -17.33268 | 35629 ft | 479 kts | 119° |
| 2026-04-20 15:51 | 62.19470 | -17.21194 | 35629 ft | 479 kts | 119° |
| 2026-04-20 15:51 | 62.15913 | -17.09149 | 35631 ft | 478 kts | 119° |
| 2026-04-20 15:52 | 62.12346 | -16.97136 | 35653 ft | 478 kts | 119° |
| 2026-04-20 15:52 | 62.08792 | -16.85229 | 35649 ft | 478 kts | 118° |
| 2026-04-20 15:53 | 62.03409 | -16.67309 | 35647 ft | 479 kts | 118° |
| 2026-04-20 15:53 | 61.99792 | -16.55344 | 35915 ft | 480 kts | 118° |
| 2026-04-20 15:54 | 61.97962 | -16.49318 | 36195 ft | 478 kts | 118° |
| 2026-04-20 15:54 | 61.96157 | -16.43389 | 36447 ft | 477 kts | 118° |
| 2026-04-20 15:54 | 61.94378 | -16.37562 | 36722 ft | 475 kts | 118° |
| 2026-04-20 15:54 | 61.92580 | -16.31686 | 36992 ft | 474 kts | 118° |
| 2026-04-20 15:55 | 61.90783 | -16.25825 | 37240 ft | 474 kts | 119° |
| 2026-04-20 15:55 | 61.88985 | -16.19979 | 37475 ft | 474 kts | 119° |
| 2026-04-20 15:55 | 61.87177 | -16.14110 | 37594 ft | 477 kts | 118° |
| 2026-04-20 15:55 | 61.85361 | -16.08230 | 37627 ft | 478 kts | 118° |
| 2026-04-20 15:56 | 61.81722 | -15.96506 | 37620 ft | 475 kts | 118° |
| 2026-04-20 15:56 | 61.78097 | -15.84887 | 37646 ft | 472 kts | 118° |
| 2026-04-20 15:57 | 61.74477 | -15.73337 | 37633 ft | 471 kts | 118° |
| 2026-04-20 15:57 | 61.70851 | -15.61821 | 37627 ft | 471 kts | 118° |
| 2026-04-20 15:58 | 61.67211 | -15.50319 | 37627 ft | 472 kts | 118° |
| 2026-04-20 15:58 | 61.63556 | -15.38831 | 37634 ft | 473 kts | 118° |
| 2026-04-20 15:59 | 61.59878 | -15.27327 | 37624 ft | 475 kts | 118° |
| 2026-04-20 15:59 | 61.56184 | -15.15829 | 37614 ft | 475 kts | 118° |
| 2026-04-20 16:00 | 61.52478 | -15.04343 | 37617 ft | 476 kts | 118° |
| 2026-04-20 16:00 | 61.48735 | -14.92906 | 37616 ft | 477 kts | 120° |
| 2026-04-20 16:01 | 61.44733 | -14.81797 | 37611 ft | 479 kts | 122° |
| 2026-04-20 16:01 | 61.40651 | -14.70825 | 37609 ft | 479 kts | 122° |
| 2026-04-20 16:02 | 61.36582 | -14.59832 | 37600 ft | 477 kts | 122° |
| 2026-04-20 16:02 | 61.32549 | -14.48882 | 37604 ft | 476 kts | 122° |
| 2026-04-20 16:03 | 61.28518 | -14.37958 | 37600 ft | 475 kts | 122° |
| 2026-04-20 16:03 | 61.24487 | -14.27081 | 37601 ft | 475 kts | 122° |
| 2026-04-20 16:04 | 61.20476 | -14.16317 | 37601 ft | 474 kts | 122° |
| 2026-04-20 16:04 | 61.16431 | -14.05513 | 37605 ft | 474 kts | 122° |
| 2026-04-20 16:05 | 61.12377 | -13.94737 | 37599 ft | 475 kts | 122° |
| 2026-04-20 16:05 | 61.08308 | -13.83973 | 37594 ft | 475 kts | 122° |
| 2026-04-20 16:06 | 61.04231 | -13.73239 | 37594 ft | 475 kts | 122° |
| 2026-04-20 16:06 | 61.00148 | -13.62537 | 37583 ft | 475 kts | 122° |
| 2026-04-20 16:07 | 60.96057 | -13.51863 | 37583 ft | 475 kts | 123° |
| 2026-04-20 16:07 | 60.91956 | -13.41214 | 37586 ft | 475 kts | 123° |
| 2026-04-20 16:08 | 60.87845 | -13.30588 | 37578 ft | 475 kts | 123° |
| 2026-04-20 16:08 | 60.83729 | -13.19996 | 37576 ft | 475 kts | 123° |
| 2026-04-20 16:09 | 60.80097 | -13.10693 | 37574 ft | 475 kts | 123° |
| 2026-04-20 16:09 | 60.75980 | -13.00191 | 37579 ft | 476 kts | 123° |
| 2026-04-20 16:10 | 60.71828 | -12.89649 | 37568 ft | 477 kts | 123° |
| 2026-04-20 16:10 | 60.67659 | -12.79110 | 37562 ft | 477 kts | 123° |
| 2026-04-20 16:11 | 60.63477 | -12.68587 | 37565 ft | 478 kts | 123° |
| 2026-04-20 16:11 | 60.59285 | -12.58090 | 37557 ft | 478 kts | 124° |
| 2026-04-20 16:12 | 60.55090 | -12.47630 | 37555 ft | 478 kts | 124° |
| 2026-04-20 16:12 | 60.50882 | -12.37186 | 37547 ft | 478 kts | 124° |
| 2026-04-20 16:13 | 60.46662 | -12.26758 | 37567 ft | 478 kts | 124° |
| 2026-04-20 16:13 | 60.42438 | -12.16368 | 37547 ft | 479 kts | 124° |
| 2026-04-20 16:14 | 60.38196 | -12.05983 | 37543 ft | 479 kts | 124° |
| 2026-04-20 16:14 | 60.33948 | -11.95629 | 37546 ft | 478 kts | 124° |
| 2026-04-20 16:15 | 60.29694 | -11.85305 | 37533 ft | 478 kts | 124° |
| 2026-04-20 16:15 | 60.25461 | -11.75080 | 37534 ft | 478 kts | 124° |
| 2026-04-20 16:16 | 60.21192 | -11.64812 | 37523 ft | 478 kts | 124° |
| 2026-04-20 16:16 | 60.16919 | -11.54581 | 37522 ft | 478 kts | 124° |
| 2026-04-20 16:17 | 60.12635 | -11.44370 | 37511 ft | 478 kts | 125° |
| 2026-04-20 16:17 | 60.08345 | -11.34188 | 37532 ft | 478 kts | 125° |
| 2026-04-20 16:18 | 60.04046 | -11.24031 | 37516 ft | 478 kts | 125° |
| 2026-04-20 16:18 | 59.99741 | -11.13905 | 37505 ft | 478 kts | 125° |
| 2026-04-20 16:19 | 59.95430 | -11.03808 | 37511 ft | 478 kts | 125° |
| 2026-04-20 16:19 | 59.91114 | -10.93743 | 37497 ft | 477 kts | 125° |
| 2026-04-20 16:20 | 59.86796 | -10.83719 | 37495 ft | 477 kts | 125° |
| 2026-04-20 16:20 | 59.82473 | -10.73725 | 37495 ft | 476 kts | 126° |
| 2026-04-20 16:21 | 59.78145 | -10.63763 | 37491 ft | 476 kts | 126° |
| 2026-04-20 16:21 | 59.73809 | -10.53826 | 37499 ft | 476 kts | 126° |
| 2026-04-20 16:22 | 59.69458 | -10.43895 | 37490 ft | 477 kts | 126° |
| 2026-04-20 16:22 | 59.65094 | -10.33980 | 37481 ft | 478 kts | 126° |
| 2026-04-20 16:23 | 59.60721 | -10.24084 | 37480 ft | 478 kts | 126° |
| 2026-04-20 16:23 | 59.56339 | -10.14207 | 37474 ft | 478 kts | 126° |
| 2026-04-20 16:24 | 59.52040 | -10.04227 | 37464 ft | 475 kts | 121° |
| 2026-04-20 16:24 | 59.48777 | -9.93080 | 37467 ft | 468 kts | 110° |
| 2026-04-20 16:25 | 59.46563 | -9.81156 | 37470 ft | 464 kts | 104° |
| 2026-04-20 16:25 | 59.44471 | -9.69135 | 37466 ft | 466 kts | 105° |
| 2026-04-20 16:26 | 59.42258 | -9.57156 | 37457 ft | 468 kts | 109° |
| 2026-04-20 16:26 | 59.39098 | -9.45875 | 37462 ft | 475 kts | 120° |
| 2026-04-20 16:27 | 59.34995 | -9.35618 | 37461 ft | 479 kts | 126° |
| 2026-04-20 16:27 | 59.30702 | -9.25714 | 37450 ft | 480 kts | 126° |
| 2026-04-20 16:28 | 59.26355 | -9.15684 | 37456 ft | 481 kts | 126° |
| 2026-04-20 16:28 | 59.22067 | -9.05747 | 37445 ft | 482 kts | 126° |
| 2026-04-20 16:29 | 59.17746 | -8.95743 | 37440 ft | 482 kts | 126° |
| 2026-04-20 16:29 | 59.13385 | -8.85684 | 37432 ft | 482 kts | 126° |
| 2026-04-20 16:30 | 59.09080 | -8.75800 | 37435 ft | 482 kts | 126° |
| 2026-04-20 16:30 | 59.04736 | -8.65873 | 37425 ft | 482 kts | 126° |
| 2026-04-20 16:31 | 59.00386 | -8.55975 | 37425 ft | 482 kts | 126° |
| 2026-04-20 16:31 | 58.96026 | -8.46096 | 37422 ft | 482 kts | 127° |
| 2026-04-20 16:32 | 58.91663 | -8.36250 | 37415 ft | 482 kts | 127° |
| 2026-04-20 16:32 | 58.87286 | -8.26416 | 37413 ft | 482 kts | 127° |
| 2026-04-20 16:33 | 58.82898 | -8.16599 | 37423 ft | 483 kts | 127° |
| 2026-04-20 16:33 | 58.78499 | -8.06798 | 37411 ft | 483 kts | 127° |
| 2026-04-20 16:34 | 58.74093 | -7.97023 | 37397 ft | 483 kts | 127° |
| 2026-04-20 16:34 | 58.69680 | -7.87276 | 37395 ft | 483 kts | 127° |
| 2026-04-20 16:35 | 58.65269 | -7.77572 | 37415 ft | 482 kts | 127° |
| 2026-04-20 16:35 | 58.60848 | -7.67886 | 37413 ft | 482 kts | 127° |
| 2026-04-20 16:36 | 58.56450 | -7.58291 | 37391 ft | 482 kts | 127° |
| 2026-04-20 16:36 | 58.52017 | -7.48659 | 37409 ft | 482 kts | 128° |
| 2026-04-20 16:37 | 58.47580 | -7.39060 | 37388 ft | 482 kts | 128° |
| 2026-04-20 16:37 | 58.43136 | -7.29485 | 37388 ft | 481 kts | 128° |
| 2026-04-20 16:38 | 58.38689 | -7.19943 | 37388 ft | 481 kts | 128° |
| 2026-04-20 16:38 | 58.34238 | -7.10430 | 37381 ft | 481 kts | 128° |
| 2026-04-20 16:39 | 58.29782 | -7.00946 | 37387 ft | 481 kts | 128° |
| 2026-04-20 16:39 | 58.25312 | -6.91471 | 37388 ft | 481 kts | 128° |
| 2026-04-20 16:40 | 58.20840 | -6.82030 | 37380 ft | 482 kts | 128° |
| 2026-04-20 16:40 | 58.16345 | -6.72581 | 37374 ft | 482 kts | 128° |
| 2026-04-20 16:41 | 58.11849 | -6.63167 | 37371 ft | 483 kts | 128° |
| 2026-04-20 16:41 | 58.07339 | -6.53762 | 37390 ft | 483 kts | 129° |
| 2026-04-20 16:42 | 58.02820 | -6.44376 | 37401 ft | 483 kts | 129° |
| 2026-04-20 16:42 | 57.98288 | -6.35003 | 37383 ft | 484 kts | 129° |
| 2026-04-20 16:43 | 57.93745 | -6.25642 | 37373 ft | 484 kts | 129° |
| 2026-04-20 16:43 | 57.89191 | -6.16299 | 37365 ft | 485 kts | 129° |
| 2026-04-20 16:44 | 57.84633 | -6.06984 | 37369 ft | 485 kts | 129° |
| 2026-04-20 16:44 | 57.80090 | -5.97737 | 37361 ft | 485 kts | 129° |
| 2026-04-20 16:45 | 57.75510 | -5.88453 | 37358 ft | 485 kts | 130° |
| 2026-04-20 16:45 | 57.70925 | -5.79196 | 37351 ft | 485 kts | 130° |
| 2026-04-20 16:46 | 57.66325 | -5.69945 | 37353 ft | 485 kts | 130° |
| 2026-04-20 16:46 | 57.61717 | -5.60715 | 37349 ft | 485 kts | 130° |
| 2026-04-20 16:47 | 57.57113 | -5.51531 | 37326 ft | 486 kts | 130° |
| 2026-04-20 16:47 | 57.52494 | -5.42353 | 37343 ft | 486 kts | 130° |
| 2026-04-20 16:48 | 57.47865 | -5.33191 | 37346 ft | 486 kts | 131° |
| 2026-04-20 16:48 | 57.43226 | -5.24045 | 37349 ft | 486 kts | 131° |
| 2026-04-20 16:49 | 57.38567 | -5.14894 | 36904 ft | 494 kts | 131° |
| 2026-04-20 16:49 | 57.36197 | -5.10251 | 36189 ft | 497 kts | 131° |
| 2026-04-20 16:49 | 57.33822 | -5.05611 | 35379 ft | 496 kts | 131° |
| 2026-04-20 16:50 | 57.29123 | -4.96462 | 33844 ft | 493 kts | 130° |
| 2026-04-20 16:50 | 57.26771 | -4.91898 | 33221 ft | 487 kts | 131° |
| 2026-04-20 16:50 | 57.24448 | -4.87396 | 32609 ft | 481 kts | 131° |
| 2026-04-20 16:51 | 57.22156 | -4.82965 | 32045 ft | 475 kts | 131° |
| 2026-04-20 16:51 | 57.19888 | -4.78586 | 31488 ft | 469 kts | 131° |
| 2026-04-20 16:51 | 57.17645 | -4.74263 | 30949 ft | 464 kts | 131° |
| 2026-04-20 16:51 | 57.15424 | -4.69990 | 30438 ft | 459 kts | 131° |
| 2026-04-20 16:52 | 57.13227 | -4.65770 | 29760 ft | 454 kts | 131° |
| 2026-04-20 16:52 | 57.11055 | -4.61606 | 29213 ft | 447 kts | 131° |
| 2026-04-20 16:52 | 57.08919 | -4.57517 | 28647 ft | 441 kts | 132° |
| 2026-04-20 16:52 | 57.06804 | -4.53477 | 28107 ft | 435 kts | 132° |
| 2026-04-20 16:53 | 57.04748 | -4.49556 | 27596 ft | 429 kts | 132° |
| 2026-04-20 16:53 | 57.02669 | -4.45597 | 27070 ft | 423 kts | 133° |
| 2026-04-20 16:53 | 57.00631 | -4.41723 | 26539 ft | 419 kts | 133° |
| 2026-04-20 16:53 | 56.98647 | -4.37956 | 26027 ft | 414 kts | 133° |
| 2026-04-20 16:54 | 56.96656 | -4.34182 | 25533 ft | 409 kts | 133° |
| 2026-04-20 16:54 | 56.94661 | -4.30408 | 25026 ft | 404 kts | 133° |
| 2026-04-20 16:54 | 56.92713 | -4.26732 | 24564 ft | 399 kts | 134° |
| 2026-04-20 16:54 | 56.90607 | -4.23558 | 24054 ft | 392 kts | 150° |
| 2026-04-20 16:55 | 56.88071 | -4.21791 | 23543 ft | 390 kts | 165° |
| 2026-04-20 16:55 | 56.85391 | -4.21186 | 23048 ft | 389 kts | 178° |
| 2026-04-20 16:55 | 56.82745 | -4.21696 | 22613 ft | 385 kts | 186° |
| 2026-04-20 16:55 | 56.80108 | -4.22432 | 22140 ft | 381 kts | 186° |
| 2026-04-20 16:56 | 56.77508 | -4.23144 | 21691 ft | 377 kts | 185° |
| 2026-04-20 16:56 | 56.74922 | -4.23806 | 21233 ft | 374 kts | 185° |
| 2026-04-20 16:56 | 56.72356 | -4.24435 | 20798 ft | 371 kts | 185° |
| 2026-04-20 16:56 | 56.69806 | -4.25050 | 20360 ft | 368 kts | 185° |
| 2026-04-20 16:57 | 56.67271 | -4.25660 | 19906 ft | 366 kts | 185° |
| 2026-04-20 16:57 | 56.64758 | -4.26265 | 19476 ft | 364 kts | 185° |
| 2026-04-20 16:57 | 56.62247 | -4.26871 | 18975 ft | 364 kts | 185° |
| 2026-04-20 16:57 | 56.59731 | -4.27478 | 18393 ft | 365 kts | 185° |
| 2026-04-20 16:58 | 56.57216 | -4.28082 | 17828 ft | 364 kts | 185° |
| 2026-04-20 16:58 | 56.54711 | -4.28682 | 17333 ft | 362 kts | 185° |
| 2026-04-20 16:58 | 56.52226 | -4.29280 | 16860 ft | 359 kts | 185° |
| 2026-04-20 16:58 | 56.49758 | -4.29874 | 16384 ft | 357 kts | 185° |
| 2026-04-20 16:59 | 56.47304 | -4.30460 | 15940 ft | 354 kts | 185° |
| 2026-04-20 16:59 | 56.45690 | -4.30846 | 15624 ft | 352 kts | 185° |
| 2026-04-20 16:59 | 56.43269 | -4.31419 | 15123 ft | 350 kts | 185° |
| 2026-04-20 16:59 | 56.40861 | -4.31986 | 14622 ft | 349 kts | 185° |
| 2026-04-20 17:00 | 56.36040 | -4.33120 | 13645 ft | 344 kts | 185° |
| 2026-04-20 17:00 | 56.33675 | -4.33674 | 13156 ft | 342 kts | 185° |
| 2026-04-20 17:00 | 56.31318 | -4.34226 | 12678 ft | 341 kts | 185° |
| 2026-04-20 17:01 | 56.28973 | -4.34776 | 12195 ft | 339 kts | 185° |
| 2026-04-20 17:01 | 56.26643 | -4.35322 | 11722 ft | 336 kts | 185° |
| 2026-04-20 17:01 | 56.24347 | -4.35857 | 11419 ft | 328 kts | 185° |
| 2026-04-20 17:01 | 56.22116 | -4.36381 | 11165 ft | 319 kts | 185° |
| 2026-04-20 17:02 | 56.19944 | -4.36881 | 10909 ft | 308 kts | 183° |
| 2026-04-20 17:02 | 56.17883 | -4.36556 | 10608 ft | 293 kts | 159° |
| 2026-04-20 17:02 | 56.16176 | -4.34736 | 10359 ft | 282 kts | 136° |
| 2026-04-20 17:02 | 56.14987 | -4.32016 | 10114 ft | 274 kts | 120° |
| 2026-04-20 17:03 | 56.14221 | -4.28947 | 9873 ft | 265 kts | 104° |
| 2026-04-20 17:03 | 56.13779 | -4.25812 | 9360 ft | 257 kts | 114° |
| 2026-04-20 17:03 | 56.12793 | -4.23178 | 8963 ft | 253 kts | 129° |
| 2026-04-20 17:03 | 56.11664 | -4.20751 | 8495 ft | 255 kts | 129° |
| 2026-04-20 17:04 | 56.10535 | -4.18284 | 8056 ft | 256 kts | 129° |
| 2026-04-20 17:04 | 56.09419 | -4.15839 | 7761 ft | 251 kts | 129° |
| 2026-04-20 17:04 | 56.08310 | -4.13400 | 7256 ft | 255 kts | 129° |
| 2026-04-20 17:04 | 56.07193 | -4.10931 | 6885 ft | 253 kts | 129° |
| 2026-04-20 17:05 | 56.06090 | -4.08491 | 6523 ft | 251 kts | 129° |
| 2026-04-20 17:05 | 56.05018 | -4.06120 | 6309 ft | 245 kts | 129° |
| 2026-04-20 17:05 | 56.03950 | -4.03770 | 6135 ft | 236 kts | 129° |
| 2026-04-20 17:05 | 56.02930 | -4.01552 | 6051 ft | 228 kts | 129° |
| 2026-04-20 17:06 | 56.01945 | -3.99419 | 5985 ft | 223 kts | 129° |
| 2026-04-20 17:06 | 56.00964 | -3.97307 | 5991 ft | 222 kts | 129° |
| 2026-04-20 17:06 | 55.99966 | -3.95157 | 5983 ft | 225 kts | 129° |
| 2026-04-20 17:06 | 55.98966 | -3.93005 | 5979 ft | 224 kts | 129° |
| 2026-04-20 17:07 | 55.97996 | -3.90910 | 5944 ft | 214 kts | 129° |
| 2026-04-20 17:07 | 55.97062 | -3.88893 | 5841 ft | 209 kts | 129° |
| 2026-04-20 17:07 | 55.96139 | -3.86905 | 5567 ft | 207 kts | 129° |
| 2026-04-20 17:07 | 55.95222 | -3.84953 | 5316 ft | 205 kts | 129° |
| 2026-04-20 17:08 | 55.94316 | -3.83039 | 5042 ft | 199 kts | 129° |
| 2026-04-20 17:08 | 55.93434 | -3.81194 | 4763 ft | 193 kts | 129° |
| 2026-04-20 17:08 | 55.92569 | -3.79413 | 4486 ft | 187 kts | 129° |
| 2026-04-20 17:08 | 55.91732 | -3.77724 | 4245 ft | 176 kts | 129° |
| 2026-04-20 17:09 | 55.90917 | -3.76102 | 4069 ft | 175 kts | 129° |
| 2026-04-20 17:09 | 55.90105 | -3.74492 | 4043 ft | 174 kts | 129° |
| 2026-04-20 17:09 | 55.89288 | -3.72881 | 3987 ft | 177 kts | 129° |
| 2026-04-20 17:09 | 55.88469 | -3.71250 | 3992 ft | 177 kts | 129° |
| 2026-04-20 17:10 | 55.87647 | -3.69595 | 3993 ft | 179 kts | 129° |
| 2026-04-20 17:10 | 55.86955 | -3.67788 | 3975 ft | 175 kts | 105° |
| 2026-04-20 17:10 | 55.86884 | -3.65655 | 3862 ft | 174 kts | 88° |
| 2026-04-20 17:10 | 55.86908 | -3.63499 | 3612 ft | 173 kts | 89° |
| 2026-04-20 17:11 | 55.87066 | -3.61406 | 3230 ft | 173 kts | 69° |
| 2026-04-20 17:11 | 55.87587 | -3.59471 | 3026 ft | 177 kts | 66° |
| 2026-04-20 17:11 | 55.88142 | -3.57505 | 2807 ft | 177 kts | 63° |
| 2026-04-20 17:11 | 55.88759 | -3.55617 | 2366 ft | 172 kts | 61° |
| 2026-04-20 17:12 | 55.89352 | -3.53870 | 2136 ft | 160 kts | 62° |
| 2026-04-20 17:12 | 55.89901 | -3.52255 | 1917 ft | 144 kts | 61° |
| 2026-04-20 17:12 | 55.90391 | -3.50816 | 1747 ft | 130 kts | 61° |
| 2026-04-20 17:12 | 55.90864 | -3.49422 | 1567 ft | 132 kts | 60° |
| 2026-04-20 17:13 | 55.91340 | -3.48027 | 1386 ft | 131 kts | 62° |
| 2026-04-20 17:13 | 55.91808 | -3.46641 | 1200 ft | 131 kts | 61° |
| 2026-04-20 17:13 | 55.92285 | -3.45237 | 1025 ft | 134 kts | 59° |
| 2026-04-20 17:13 | 55.92764 | -3.43832 | 823 ft | 131 kts | 60° |
| 2026-04-20 17:14 | 55.93234 | -3.42450 | 664 ft | 129 kts | 62° |
| 2026-04-20 17:14 | 55.93699 | -3.41070 | 460 ft | 129 kts | 60° |
| 2026-04-20 17:14 | 55.94162 | -3.39708 | 245 ft | 127 kts | 59° |
| 2026-04-20 17:14 | 55.94623 | -3.38366 | 137 ft | 126 kts | 60° |
| 2026-04-20 17:15 | 55.95022 | -3.37188 | 114 ft | 84 kts | 59° |
| 2026-04-20 17:15 | 55.95223 | -3.36590 | 113 ft | 45 kts | 59° |
| 2026-04-20 17:15 | 55.95378 | -3.36135 | 111 ft | 41 kts | 58° |
| 2026-04-20 17:15 | 55.95505 | -3.35766 | 115 ft | 19 kts | 58° |
| 2026-04-20 17:16 | 55.95562 | -3.35586 | 114 ft | 13 kts | 71° |
| 2026-04-20 17:16 | 55.95518 | -3.35458 | 115 ft | 13 kts | 148° |
| 2026-04-20 17:16 | 55.95443 | -3.35405 | 117 ft | 11 kts | 192° |
| 2026-04-20 17:16 | 55.95395 | -3.35511 | 117 ft | 11 kts | 239° |
| 2026-04-20 17:17 | 55.95359 | -3.35618 | 116 ft | 7 kts | 239° |
| 2026-04-20 17:17 | 55.95333 | -3.35691 | 117 ft | 7 kts | 237° |
| 2026-04-20 17:17 | 55.95307 | -3.35765 | 117 ft | 7 kts | 237° |
| 2026-04-20 17:17 | 55.95279 | -3.35844 | 117 ft | 8 kts | 239° |
| 2026-04-20 17:18 | 55.95250 | -3.35933 | 117 ft | 9 kts | 239° |
| 2026-04-20 17:18 | 55.95200 | -3.35976 | 118 ft | 9 kts | 172° |
| 2026-04-20 17:18 | 55.95145 | -3.35921 | 117 ft | 9 kts | 140° |
| 2026-04-20 17:18 | 55.95107 | -3.35832 | 117 ft | 9 kts | 126° |
| 2026-04-20 17:19 | 55.95071 | -3.35739 | 117 ft | 9 kts | 122° |
| 2026-04-20 17:19 | 55.95038 | -3.35635 | 118 ft | 10 kts | 118° |
| 2026-04-20 17:19 | 55.95003 | -3.35521 | 120 ft | 11 kts | 119° |
| 2026-04-20 17:19 | 55.94964 | -3.35401 | 117 ft | 12 kts | 119° |
| 2026-04-20 17:20 | 55.94925 | -3.35271 | 116 ft | 12 kts | 118° |
| 2026-04-20 17:20 | 55.94884 | -3.35135 | 117 ft | 13 kts | 118° |
| 2026-04-20 17:20 | 55.94840 | -3.34994 | 117 ft | 12 kts | 117° |
| 2026-04-20 17:20 | 55.94859 | -3.34885 | 118 ft | 10 kts | 38° |
| 2026-04-20 17:21 | 55.94919 | -3.34838 | 118 ft | 7 kts | 0° |
| 2026-04-20 17:21 | 55.94963 | -3.34872 | 118 ft | 7 kts | 351° |
| 2026-04-20 17:21 | 55.95002 | -3.34851 | 116 ft | 5 kts | 26° |
| 2026-04-20 17:21 | 55.95016 | -3.34838 | 117 ft | 0 kts | 27° |